Thunder radar more information blitzortung!


Radar de pluja more information rain snow radar


Visita la nostra xarxa de llocs de meteo:

Template documentation
and downloads

And another site



No particular awareness of the weather is required.    There are no Weather-warnings

Pagina Historial Weather Underground text

Diari Resum Octubre 12, 2017 Unitats:  Mètric    Imperial   Tant
« Previous Dia
SegĂźent Dia »
Diari Setmana Mensual Anual Personalitzada
  Maxima: Minima: Media:
Temperatura: -17.8 °C -10.1 °C -6.2 °C
Punt de rosada: -17.8 °C -11 °C -9.1 °C
Humitat: Humidity % 51 % 73 %
Wind Speed: 0 km/h 0 km/h 9 km/h
RĂ fegues de vent: 0 km/h - -
Vent:- - SSW
Pression baro: 0 hPa 34635.4 hPa -
Precipitacions: 0 mm    
Historical Graphs
 
 
Dades de taula per Octubre 12, 2017
Temps Temperatura Punt de rosada Pression baro Vent Wind Speed RĂ fegues de vent Humitat Rainfall Rate (Hourly)
-17.8 °C -17.8 °C 0 hPa Calm     Humidity % 0 mm
00:00 -9.4 °C -10.3 °C 34669.3 hPa Calm   2.6 km/h 90 % 0 mm
00:02 -7.6 °C -9.1 °C 34669.3 hPa West 3.1 km/h   84 % 0 mm
00:07 -7.6 °C -9.1 °C 34669.3 hPa West 3.1 km/h 3.7 km/h 84 % 0 mm
00:10 -9.5 °C -10.4 °C 34669.3 hPa Calm   2.6 km/h 90 % 0 mm
00:12 -7.6 °C -9 °C 34669.3 hPa West 4.2 km/h 4.2 km/h 85 % 0 mm
00:20 -9.6 °C -10.5 °C 34669.3 hPa Calm   2.6 km/h 90 % 0 mm
00:30 -9.7 °C -10.6 °C 34669.3 hPa SW 5.1 km/h 5.1 km/h 90 % 0 mm
00:40 -9.8 °C -10.8 °C 34669.3 hPa SW 5.1 km/h 7.7 km/h 89 % 0 mm
00:50 -9.9 °C -10.9 °C 34669.3 hPa SW 2.6 km/h 5.1 km/h 89 % 0 mm
01:00 -9.9 °C -10.8 °C 34669.3 hPa Calm   5.1 km/h 90 % 0 mm
01:10 -9.9 °C -10.8 °C 34669.3 hPa Calm   5.1 km/h 90 % 0 mm
01:20 -9.9 °C -10.8 °C 34669.3 hPa SW 5.1 km/h 5.1 km/h 90 % 0 mm
01:30 -9.9 °C -10.8 °C 34669.3 hPa SW 2.6 km/h 5.1 km/h 90 % 0 mm
01:40 -9.9 °C -10.8 °C 34669.3 hPa WSW 5.1 km/h 5.1 km/h 90 % 0 mm
01:50 -9.9 °C -10.8 °C 34669.3 hPa WSW 2.6 km/h 5.1 km/h 90 % 0 mm
02:00 -9.9 °C -10.8 °C 34703.1 hPa WSW 5.1 km/h 5.1 km/h 90 % 0 mm
02:10 -10.1 °C -10.9 °C 34703.1 hPa SW 5.1 km/h 5.1 km/h 90 % 0 mm
02:20 -10.1 °C -11 °C 34703.1 hPa WSW 2.6 km/h 5.1 km/h 90 % 0 mm
02:30 -10.1 °C -10.9 °C 34740.4 hPa SW 2.6 km/h 7.7 km/h 91 % 0 mm
02:50 -9.9 °C -10.6 °C 34740.4 hPa Calm   5.1 km/h 92 % 0 mm
03:00 -9.9 °C -10.7 °C 34740.4 hPa Calm   2.6 km/h 92 % 0 mm
03:10 -9.9 °C -10.7 °C 34740.4 hPa Calm     92 % 0 mm
03:20 -10 °C -10.7 °C 34740.4 hPa Calm     92 % 0 mm
03:30 -9.9 °C -10.7 °C 34740.4 hPa Calm     92 % 0 mm
03:40 -9.9 °C -10.5 °C 34740.4 hPa Calm     93 % 0 mm
03:50 -9.8 °C -10.6 °C 34740.4 hPa Calm     92 % 0 mm
04:00 -9.8 °C -10.4 °C 34740.4 hPa Calm     93 % 0 mm
04:10 -9.5 °C -10.1 °C 34740.4 hPa WSW 2.6 km/h 2.6 km/h 93 % 0 mm
04:20 -9.3 °C -9.9 °C 34740.4 hPa WSW 2.6 km/h 5.1 km/h 93 % 0 mm
04:30 -9.2 °C -9.8 °C 34740.4 hPa Calm   2.6 km/h 93 % 0 mm
04:40 -8.9 °C -9.5 °C 34740.4 hPa SW 5.1 km/h 5.1 km/h 93 % 0 mm
04:50 -8.8 °C -9.5 °C 34740.4 hPa Calm   5.1 km/h 93 % 0 mm
05:00 -8.7 °C -9.3 °C 34740.4 hPa Calm     93 % 0 mm
05:10 -8.6 °C -9.2 °C 34740.4 hPa South 2.6 km/h 5.1 km/h 93 % 0 mm
05:20 -8.4 °C -9.2 °C 34774.2 hPa North 2.6 km/h 5.1 km/h 92 % 0 mm
05:30 -8.2 °C -9.1 °C 34774.2 hPa NNW 2.6 km/h 5.1 km/h 91 % 0 mm
05:40 -8.1 °C -9.1 °C 34774.2 hPa SSW 5.1 km/h 7.7 km/h 90 % 0 mm
05:50 -7.8 °C -8.9 °C 34774.2 hPa NE 2.6 km/h 5.1 km/h 88 % 0 mm
06:00 -7.6 °C -8.9 °C 34774.2 hPa Calm   2.6 km/h 86 % 0 mm
11:01 -7.4 °C -8.8 °C 34774.2 hPa NNW 3.1 km/h   86 % 0 mm
11:06 -7.4 °C -8.9 °C 34774.2 hPa NNE 3.7 km/h 3.7 km/h 85 % 0 mm
11:11 -7.4 °C -8.9 °C 34774.2 hPa South 3.1 km/h   84 % 0 mm
11:16 -7.2 °C -8.8 °C 34774.2 hPa SW 6 km/h 6 km/h 83 % 0 mm
11:21 -7.2 °C -8.8 °C 34774.2 hPa South 6 km/h 6 km/h 83 % 0 mm
11:31 -7.1 °C -8.8 °C 34774.2 hPa ESE 3.1 km/h 3.1 km/h 82 % 0 mm
11:36 -6.9 °C -8.7 °C 34774.2 hPa SE 4.2 km/h 4.2 km/h 82 % 0 mm
11:41 -6.7 °C -8.5 °C 34774.2 hPa WNW 6 km/h 6 km/h 82 % 0 mm
11:46 -6.7 °C -8.6 °C 34774.2 hPa NNE 6 km/h 6 km/h 81 % 0 mm
11:47 -6.6 °C -8.6 °C 34774.2 hPa NNE 3.1 km/h   80 % 0 mm
11:57 -6.5 °C -8.6 °C 34774.2 hPa NNW 3.1 km/h   79 % 0 mm
12:02 -6.3 °C -8.5 °C 34774.2 hPa NE 3.1 km/h   78 % 0 mm
12:07 -6.2 °C -8.6 °C 34774.2 hPa SE 9 km/h 9 km/h 77 % 0 mm
12:12 -6.1 °C -8.6 °C 34774.2 hPa ESE 6 km/h 6 km/h 76 % 0 mm
12:17 -5.7 °C -8.2 °C 34774.2 hPa ESE 6.3 km/h 6.3 km/h 76 % 0 mm
12:22 -5.6 °C -8.1 °C 34774.2 hPa East 5.6 km/h 5.6 km/h 75 % 0 mm
12:27 -5.4 °C -8.2 °C 34774.2 hPa NNE 9.3 km/h 9.3 km/h 74 % 0 mm
12:32 -5.6 °C -8.5 °C 34774.2 hPa ENE 9 km/h 9 km/h 72 % 0 mm
12:37 -5.4 °C -8.2 °C 34774.2 hPa ENE 9.8 km/h 9.8 km/h 73 % 0 mm
12:42 -5.2 °C -8.1 °C 34774.2 hPa ENE 9.3 km/h 9.3 km/h 73 % 0 mm
12:44 -5.3 °C -8.2 °C 34774.2 hPa NNE 9 km/h 9 km/h 72 % 0 mm
12:49 -5.3 °C -8.3 °C 34774.2 hPa NE 11.9 km/h 11.9 km/h 72 % 0 mm
12:54 -5.3 °C -8.3 °C 34774.2 hPa WNW 3.1 km/h 3.1 km/h 72 % 0 mm
12:59 -5.2 °C -8.1 °C 34774.2 hPa NW 6 km/h 6 km/h 72 % 0 mm
13:04 -4.9 °C -8.2 °C 34774.2 hPa ESE 6 km/h 6 km/h 70 % 0 mm
13:09 -4.8 °C -8.2 °C 34774.2 hPa SE 9 km/h 9 km/h 69 % 0 mm
13:14 -4.9 °C -8.5 °C 34774.2 hPa SW 9 km/h 9 km/h 67 % 0 mm
13:19 -4.8 °C -8.1 °C 34774.2 hPa NE 9 km/h 9 km/h 69 % 0 mm
13:24 -5 °C -8.6 °C 34774.2 hPa SE 9 km/h 9 km/h 67 % 0 mm
13:29 -4.6 °C -8.1 °C 34740.4 hPa ESE 10.3 km/h 10.3 km/h 68 % 0 mm
13:34 -4.8 °C -8.6 °C 34740.4 hPa SE 14.5 km/h 14.5 km/h 66 % 0 mm
13:39 -4.8 °C -8.4 °C 34740.4 hPa ENE 9 km/h 9 km/h 67 % 0 mm
13:44 -4.7 °C -8.2 °C 34703.1 hPa WNW 6 km/h 6 km/h 68 % 0 mm
13:49 -4.5 °C -8.1 °C 34703.1 hPa SW 6 km/h 6 km/h 67 % 0 mm
13:54 -4.5 °C -8.5 °C 34703.1 hPa ESE 11.9 km/h 11.9 km/h 64 % 0 mm
13:59 -4.4 °C -8.4 °C 34703.1 hPa ENE 15 km/h 15 km/h 64 % 0 mm
14:04 -4.2 °C -8.1 °C 34703.1 hPa SSW 3.1 km/h 3.7 km/h 65 % 0 mm
14:09 -4.1 °C -8 °C 34703.1 hPa SE 9 km/h 9 km/h 65 % 0 mm
14:14 -3.9 °C -8 °C 34740.4 hPa SSW 17.9 km/h 17.9 km/h 64 % 0 mm
14:19 -3.7 °C -8 °C 34740.4 hPa SW 11.9 km/h 11.9 km/h 62 % 0 mm
14:24 -3.6 °C -8.1 °C 34740.4 hPa SW 15 km/h 15 km/h 61 % 0 mm
14:29 -3.4 °C -8 °C 34740.4 hPa SSE 6 km/h 6 km/h 60 % 0 mm
14:34 -3.7 °C -8.4 °C 34740.4 hPa South 15 km/h 15 km/h 59 % 0 mm
14:39 -3.6 °C -8.3 °C 34740.4 hPa SSE 15 km/h 15 km/h 59 % 0 mm
14:44 -3.4 °C -8.1 °C 34740.4 hPa WSW 15.6 km/h 16.6 km/h 60 % 0 mm
14:49 -3.6 °C -8.3 °C 34740.4 hPa SE 17.9 km/h 17.9 km/h 59 % 0 mm
14:54 -3.5 °C -8.4 °C 34740.4 hPa SW 15 km/h 15 km/h 58 % 0 mm
14:59 -3.4 °C -8.4 °C 34703.1 hPa SSE 20.3 km/h 20.3 km/h 58 % 0 mm
15:04 -3.6 °C -8.8 °C 34703.1 hPa North 9 km/h 9 km/h 56 % 0 mm
15:09 -3.4 °C -8.5 °C 34703.1 hPa SW 11.9 km/h 11.9 km/h 57 % 0 mm
15:19 -3.2 °C -8.5 °C 34703.1 hPa WSW 9.8 km/h 9.8 km/h 56 % 0 mm
15:24 -3.1 °C -8.4 °C 34703.1 hPa SSW 19.6 km/h 19.6 km/h 56 % 0 mm
15:29 -3.1 °C -8.6 °C 34703.1 hPa SW 11.9 km/h 11.9 km/h 55 % 0 mm
15:34 -3.1 °C -8.5 °C 34703.1 hPa WSW 9 km/h 9 km/h 55 % 0 mm
15:39 -3.1 °C -8.5 °C 34703.1 hPa SSW 9 km/h 9 km/h 55 % 0 mm
15:44 -3.1 °C -8.8 °C 34669.3 hPa SSE 16.1 km/h 16.1 km/h 53 % 0 mm
15:49 -2.9 °C -8.4 °C 34669.3 hPa SW 10.3 km/h 10.3 km/h 55 % 0 mm
15:54 -2.9 °C -8.3 °C 34669.3 hPa West 11.9 km/h 11.9 km/h 55 % 0 mm
15:59 -2.9 °C -8.5 °C 34669.3 hPa West 15 km/h 15 km/h 54 % 0 mm
16:04 -2.8 °C -8.4 °C 34669.3 hPa South 15 km/h 15 km/h 54 % 0 mm
16:09 -2.6 °C -8.6 °C 34669.3 hPa SW 20.3 km/h 20.3 km/h 52 % 0 mm
16:14 -2.8 °C -8.6 °C 34669.3 hPa South 15 km/h 15 km/h 53 % 0 mm
16:19 -2.7 °C -8.7 °C 34669.3 hPa SW 11.9 km/h 11.9 km/h 52 % 0 mm
16:24 -2.9 °C -8.7 °C 34669.3 hPa SW 15 km/h 15 km/h 53 % 0 mm
16:29 -3 °C -8.9 °C 34635.4 hPa SW 17.9 km/h 17.9 km/h 52 % 0 mm
16:34 -2.9 °C -8.9 °C 34635.4 hPa SSW 6 km/h 7.6 km/h 52 % 0 mm
16:39 -2.8 °C -8.9 °C 34635.4 hPa SSW 9.3 km/h 9.3 km/h 51 % 0 mm
16:44 -2.9 °C -8.8 °C 34669.3 hPa SW 15 km/h 15 km/h 52 % 0 mm
16:49 -3 °C -8.9 °C 34669.3 hPa South 15 km/h 15 km/h 52 % 0 mm
16:54 -2.9 °C -8.7 °C 34669.3 hPa SW 11.9 km/h 11.9 km/h 53 % 0 mm
16:59 -2.9 °C -8.7 °C 34669.3 hPa WSW 15 km/h 15 km/h 53 % 0 mm
17:04 -3 °C -8.8 °C 34669.3 hPa WSW 15 km/h 15 km/h 53 % 0 mm
17:09 -3.4 °C -9.1 °C 34669.3 hPa SW 23.8 km/h 23.8 km/h 53 % 0 mm
17:19 -3.5 °C -9.1 °C 34669.3 hPa SSW 15 km/h 15 km/h 54 % 0 mm
17:29 -3.7 °C -9.1 °C 34669.3 hPa SSW 17.9 km/h 17.9 km/h 55 % 0 mm
17:34 -3.8 °C -9.2 °C 34669.3 hPa SW 20.3 km/h 20.3 km/h 55 % 0 mm
17:39 -3.9 °C -9.3 °C 34669.3 hPa SW 19.2 km/h 19.2 km/h 55 % 0 mm
17:44 -4.1 °C -9.1 °C 34669.3 hPa SSW 20.9 km/h 20.9 km/h 57 % 0 mm
17:49 -4.1 °C -9.2 °C 34669.3 hPa SW 20.3 km/h 20.3 km/h 57 % 0 mm
17:54 -4.2 °C -9.1 °C 34669.3 hPa SW 17.9 km/h 17.9 km/h 58 % 0 mm
17:59 -4.3 °C -9.2 °C 34669.3 hPa WSW 17.9 km/h 17.9 km/h 58 % 0 mm
18:04 -4.2 °C -8.9 °C 34669.3 hPa SSW 20.9 km/h 20.9 km/h 59 % 0 mm
18:09 -4.3 °C -9.1 °C 34669.3 hPa SW 20.9 km/h 20.9 km/h 59 % 0 mm
18:14 -4.5 °C -9.1 °C 34669.3 hPa West 15 km/h 15 km/h 60 % 0 mm
18:19 -4.6 °C -9 °C 34669.3 hPa WSW 25.1 km/h 25.1 km/h 61 % 0 mm
18:24 -4.7 °C -9.1 °C 34669.3 hPa SW 15 km/h 15 km/h 61 % 0 mm
18:26 -4.7 °C -9.1 °C 34669.3 hPa SW 15 km/h 15 km/h 61 % 0 mm
18:31 -4.7 °C -9 °C 34669.3 hPa WSW 17.9 km/h 17.9 km/h 62 % 0 mm
18:36 -4.8 °C -9 °C 34669.3 hPa SW 17.9 km/h 17.9 km/h 63 % 0 mm
18:41 -4.9 °C -9 °C 34669.3 hPa SW 20.9 km/h 20.9 km/h 63 % 0 mm
18:46 -5 °C -9 °C 34669.3 hPa SSW 15 km/h 15.3 km/h 64 % 0 mm
18:51 -5.1 °C -9.1 °C 34669.3 hPa SSE 11.9 km/h 11.9 km/h 64 % 0 mm
18:56 -5.2 °C -9.1 °C 34669.3 hPa SSW 11.9 km/h 11.9 km/h 65 % 0 mm
19:01 -5.3 °C -9.2 °C 34703.1 hPa WSW 10.3 km/h 10.3 km/h 65 % 0 mm
19:06 -5.4 °C -9.1 °C 34703.1 hPa West 9.3 km/h 9.3 km/h 66 % 0 mm
19:11 -5.5 °C -9.2 °C 34703.1 hPa SW 15 km/h 15 km/h 66 % 0 mm
19:16 -5.6 °C -9.1 °C 34669.3 hPa SW 12.2 km/h 12.2 km/h 67 % 0 mm
19:21 -5.7 °C -9.1 °C 34669.3 hPa SW 11.9 km/h 11.9 km/h 68 % 0 mm
19:26 -5.7 °C -9 °C 34669.3 hPa SSW 23.8 km/h 23.8 km/h 69 % 0 mm
19:31 -5.8 °C -9 °C 34703.1 hPa SW 15 km/h 15 km/h 70 % 0 mm
19:36 -5.9 °C -9.1 °C 34703.1 hPa SW 15 km/h 15 km/h 70 % 0 mm
19:41 -5.9 °C -9 °C 34703.1 hPa SW 17.9 km/h 17.9 km/h 71 % 0 mm
19:46 -6.1 °C -9.1 °C 34669.3 hPa WSW 15 km/h 15 km/h 71 % 0 mm
19:51 -6.1 °C -9 °C 34669.3 hPa SW 15 km/h 15 km/h 72 % 0 mm
19:56 -6.2 °C -8.9 °C 34669.3 hPa SW 20.9 km/h 20.9 km/h 73 % 0 mm
20:01 -6.2 °C -9 °C 34703.1 hPa SW 15 km/h 15 km/h 73 % 0 mm
20:06 -6.2 °C -8.9 °C 34703.1 hPa SW 15 km/h 15 km/h 74 % 0 mm
20:11 -6.3 °C -8.9 °C 34703.1 hPa SW 15 km/h 15 km/h 74 % 0 mm
20:16 -6.3 °C -8.9 °C 34703.1 hPa West 15 km/h 15 km/h 75 % 0 mm
20:21 -6.3 °C -8.9 °C 34703.1 hPa SSW 11.9 km/h 11.9 km/h 75 % 0 mm
20:26 -6.4 °C -8.8 °C 34703.1 hPa West 12.7 km/h 12.7 km/h 76 % 0 mm
20:31 -6.4 °C -8.9 °C 34740.4 hPa WSW 15 km/h 15 km/h 76 % 0 mm
20:36 -6.4 °C -8.8 °C 34740.4 hPa West 6.8 km/h 6.8 km/h 77 % 0 mm
20:41 -6.5 °C -8.8 °C 34740.4 hPa WSW 9 km/h 9 km/h 77 % 0 mm
20:46 -6.6 °C -8.8 °C 34740.4 hPa WSW 9 km/h 9 km/h 77 % 0 mm
20:51 -6.6 °C -8.8 °C 34740.4 hPa SW 11.9 km/h 11.9 km/h 77 % 0 mm
20:56 -6.6 °C -8.8 °C 34740.4 hPa SW 11.9 km/h 11.9 km/h 78 % 0 mm
21:01 -6.6 °C -8.8 °C 34740.4 hPa SW 9 km/h 9 km/h 78 % 0 mm
21:06 -6.7 °C -8.8 °C 34740.4 hPa WSW 11.9 km/h 11.9 km/h 78 % 0 mm
21:11 -6.7 °C -8.8 °C 34740.4 hPa SW 11.9 km/h 11.9 km/h 78 % 0 mm
21:16 -6.7 °C -8.8 °C 34740.4 hPa SSW 9 km/h 9 km/h 79 % 0 mm
21:21 -6.8 °C -8.8 °C 34740.4 hPa WSW 9 km/h 9 km/h 79 % 0 mm
21:26 -6.8 °C -8.8 °C 34740.4 hPa SW 6.3 km/h 6.3 km/h 79 % 0 mm
21:31 -6.8 °C -8.8 °C 34740.4 hPa SW 9 km/h 9 km/h 80 % 0 mm
21:36 -6.8 °C -8.8 °C 34740.4 hPa SW 8 km/h 8 km/h 80 % 0 mm
21:41 -6.8 °C -8.8 °C 34740.4 hPa West 9 km/h 9 km/h 80 % 0 mm
21:46 -6.9 °C -8.8 °C 34774.2 hPa WSW 6 km/h 6 km/h 81 % 0 mm
21:51 -6.9 °C -8.8 °C 34774.2 hPa SW 3.1 km/h   81 % 0 mm
21:56 -6.9 °C -8.7 °C 34774.2 hPa West 3.1 km/h 3.1 km/h 82 % 0 mm
22:01 -6.9 °C -8.7 °C 34740.4 hPa SW 5.1 km/h   82 % 0 mm
22:06 -6.9 °C -8.7 °C 34740.4 hPa WSW 3.1 km/h   82 % 0 mm
22:11 -7 °C -8.8 °C 34740.4 hPa WSW 3.1 km/h 3.1 km/h 82 % 0 mm
22:16 -7 °C -8.8 °C 34740.4 hPa West 6 km/h 6 km/h 82 % 0 mm
22:21 -7 °C -8.8 °C 34740.4 hPa West 3.1 km/h 3.1 km/h 82 % 0 mm
22:26 -7.1 °C -8.7 °C 34740.4 hPa West 6 km/h 6 km/h 83 % 0 mm
22:31 -7.1 °C -8.7 °C 34740.4 hPa WSW 3.1 km/h 3.1 km/h 83 % 0 mm
22:36 -7.1 °C -8.8 °C 34740.4 hPa WSW 3.1 km/h 3.1 km/h 83 % 0 mm
22:41 -7.1 °C -8.8 °C 34740.4 hPa WSW 6 km/h 6 km/h 83 % 0 mm
22:46 -7.1 °C -8.8 °C 34740.4 hPa WSW 4.2 km/h   83 % 0 mm
22:51 -7.2 °C -8.8 °C 34740.4 hPa WSW 6 km/h 6 km/h 83 % 0 mm
22:56 -7.2 °C -8.7 °C 34740.4 hPa SW 3.1 km/h   84 % 0 mm
23:01 -7.2 °C -8.8 °C 34740.4 hPa Calm     84 % 0 mm
23:06 -7.2 °C -8.8 °C 34740.4 hPa WSW 3.1 km/h 3.1 km/h 84 % 0 mm
23:11 -7.2 °C -8.7 °C 34740.4 hPa West 3.1 km/h 3.7 km/h 84 % 0 mm
23:16 -7.2 °C -8.8 °C 34740.4 hPa West 6 km/h 6 km/h 84 % 0 mm
23:21 -7.2 °C -8.8 °C 34740.4 hPa WSW 6 km/h 6 km/h 84 % 0 mm
23:26 -7.2 °C -8.8 °C 34740.4 hPa WSW 6 km/h 6 km/h 84 % 0 mm
23:31 -7.2 °C -8.8 °C 34740.4 hPa West 6 km/h 6 km/h 84 % 0 mm
23:36 -7.2 °C -8.8 °C 34740.4 hPa SW 6 km/h 6 km/h 84 % 0 mm
23:41 -7.2 °C -8.7 °C 34740.4 hPa West 3.1 km/h 3.7 km/h 85 % 0 mm
23:46 -7.2 °C -8.7 °C 34740.4 hPa West 9 km/h 9 km/h 85 % 0 mm
23:51 -7.2 °C -8.7 °C 34740.4 hPa West 6 km/h 6 km/h 85 % 0 mm
23:56 -7.2 °C -8.7 °C 34740.4 hPa WSW 11.9 km/h 11.9 km/h 85 % 0 mm
Meteo Sesrovires
Elogis d' Weather Underground - 1.5 mb

Guio original per  Jim McMurry - jmcmurry@mwt.net Adaptat per a la plantilla per  Wim van der Kuil - Leuven-Template.eu

Trobareu la nostra informacio del temps tambe a:

Weather Underground

AWEKAS